Terminal Aerodrome Forecast
Issued by NWS Houston/Galveston TX

Home | Current Version | Previous Version | Text Only | Print | Product List | Glossary On
Versions: 1 2 3 4 5 6 7 8 9 10 11 12 13 14 15 16 17 18 19 20 21 22 23 24 25 26 27 28 29 30 31 32 33 34 35 36 37 38 39 40 41 42 43 44 45 46
000
FTUS44 KHGX 211508 AAA
TAFHOU
TAF AMD
KHOU 211508Z 2115/2212 12008KT P6SM VCSH FEW015 OVC040
      TEMPO 2115/2118 4SM RA BR BKN015 OVC025
     FM211800 13015KT P6SM VCSH SCT025 BKN045
     FM220000 12010KT P6SM SCT015 BKN025
     FM220300 13016KT P6SM BKN015
     FM220600 13015KT P6SM VCSH BKN015=

USA.gov is the U.S. government's official web portal to all federal, state and local government web resources and services.